Time;durP1;ratioP1;P1;durP2;ratioP2;P2;SDS_P1;SDS_P2;PMS_P1;PMS_P2;Temp;Humidity;BMP_temperature;BMP_pressure;BME280_temperature;BME280_humidity;BME280_pressure;Samples;Min_cycle;Max_cycle;Signal;HPM_P1;HPM_P2
2022/04/21 00:00:04;;;;;;;9.85;6.38;;;10.30;99.90;;;;;;5011981;28;20566;-75
2022/04/21 00:02:29;;;;;;;8.23;6.30;;;10.30;99.90;;;;;;5022109;28;20048;-75
2022/04/21 00:04:55;;;;;;;10.23;6.50;;;10.30;99.90;;;;;;5011804;28;20401;-75
2022/04/21 00:07:22;;;;;;;11.70;6.38;;;10.40;99.90;;;;;;5013802;28;20342;-75
2022/04/21 00:09:47;;;;;;;9.55;6.63;;;10.30;99.90;;;;;;5014255;28;20052;-74
2022/04/21 00:12:13;;;;;;;8.35;6.43;;;10.30;99.90;;;;;;5017716;28;20042;-74
2022/04/21 00:14:39;;;;;;;12.10;6.45;;;10.30;99.90;;;;;;5011602;28;20049;-75
2022/04/21 00:17:10;;;;;;;9.80;6.82;;;10.30;99.90;;;;;;5011115;28;20449;-75
2022/04/21 00:19:37;;;;;;;8.85;6.60;;;10.20;99.90;;;;;;5019172;28;20045;-74
2022/04/21 00:24:48;;;;;;;8.98;6.05;;;10.20;99.90;;;;;;5010839;28;20042;-74
2022/04/21 00:27:14;;;;;;;9.38;7.00;;;10.10;99.90;;;;;;5013635;28;20053;-74
2022/04/21 00:29:40;;;;;;;9.30;7.15;;;10.10;99.90;;;;;;5015921;28;20422;-74
2022/04/21 00:32:05;;;;;;;10.15;6.97;;;10.10;99.90;;;;;;5011288;28;20042;-74
2022/04/21 00:34:34;;;;;;;10.43;7.10;;;10.10;99.90;;;;;;5011249;28;20041;-74
2022/04/21 00:37:00;;;;;;;10.93;6.82;;;10.10;99.90;;;;;;5004639;28;20474;-75
2022/04/21 00:39:27;;;;;;;10.18;6.82;;;10.00;99.90;;;;;;5009880;28;20038;-74
2022/04/21 00:41:58;;;;;;;10.05;7.50;;;10.00;99.90;;;;;;5010161;28;20128;-74
2022/04/21 00:44:24;;;;;;;8.27;7.00;;;10.00;99.90;;;;;;5010491;28;20396;-74
2022/04/21 00:46:50;;;;;;;11.85;7.18;;;10.00;99.90;;;;;;5010073;28;20042;-74
2022/04/21 00:49:18;;;;;;;9.68;7.07;;;9.90;99.90;;;;;;5014758;28;20228;-74
2022/04/21 00:51:44;;;;;;;9.20;7.20;;;9.90;99.90;;;;;;5012927;28;20108;-74
2022/04/21 00:54:10;;;;;;;8.70;7.03;;;9.90;99.90;;;;;;5030273;28;20045;-74
2022/04/21 00:56:36;;;;;;;10.43;7.00;;;9.90;99.90;;;;;;5010447;28;20469;-73
2022/04/21 00:59:03;;;;;;;11.75;7.50;;;9.90;99.90;;;;;;5032617;28;20049;-74
2022/04/21 01:04:14;;;;;;;9.60;7.68;;;9.80;99.90;;;;;;5011772;28;20080;-74
2022/04/21 01:06:39;;;;;;;11.88;7.78;;;9.80;99.90;;;;;;5011474;28;20126;-74
2022/04/21 01:09:05;;;;;;;9.13;7.18;;;9.80;99.90;;;;;;5030413;28;20195;-74
2022/04/21 01:11:30;;;;;;;12.15;7.50;;;9.80;99.90;;;;;;5011536;28;20053;-74
2022/04/21 01:13:56;;;;;;;10.40;7.43;;;9.70;99.90;;;;;;5015566;28;20045;-74
2022/04/21 01:16:22;;;;;;;9.63;7.53;;;9.70;99.90;;;;;;5029641;28;20042;-74
2022/04/21 01:18:47;;;;;;;10.80;7.78;;;9.70;99.90;;;;;;5010071;28;20405;-74
2022/04/21 01:21:13;;;;;;;10.07;7.85;;;9.70;99.90;;;;;;5028769;28;20060;-74
2022/04/21 01:23:38;;;;;;;11.15;7.82;;;9.70;99.90;;;;;;5011900;28;20041;-74
2022/04/21 01:26:04;;;;;;;10.20;8.27;;;9.70;99.90;;;;;;5011112;28;20045;-74
2022/04/21 01:28:31;;;;;;;11.30;8.05;;;9.70;99.90;;;;;;5012232;28;20046;-74
2022/04/21 01:30:57;;;;;;;10.60;8.45;;;9.70;99.90;;;;;;5014224;28;20045;-75
2022/04/21 01:33:24;;;;;;;9.60;7.80;;;9.60;99.90;;;;;;5029213;28;20409;-74
2022/04/21 01:35:50;;;;;;;12.05;8.88;;;9.60;99.90;;;;;;5011698;28;20099;-74
2022/04/21 01:41:09;;;;;;;10.35;8.40;;;9.50;99.90;;;;;;5029119;28;20450;-75
2022/04/21 01:43:35;;;;;;;11.00;8.43;;;9.50;99.90;;;;;;5011202;28;20120;-74
2022/04/21 01:46:02;;;;;;;10.93;8.52;;;9.40;99.90;;;;;;5031276;28;20557;-75
2022/04/21 01:48:28;;;;;;;12.55;8.73;;;9.40;99.90;;;;;;5029168;28;20065;-74
2022/04/21 01:50:53;;;;;;;11.57;8.32;;;9.40;99.90;;;;;;5027974;28;20096;-75
2022/04/21 01:53:19;;;;;;;10.55;8.40;;;9.40;99.90;;;;;;5008895;28;20413;-74
2022/04/21 01:55:46;;;;;;;11.00;8.73;;;9.40;99.90;;;;;;5010655;28;20050;-74
2022/04/21 01:58:12;;;;;;;12.23;8.73;;;9.30;99.90;;;;;;5027349;28;20476;-74
2022/04/21 02:00:38;;;;;;;10.63;8.80;;;9.30;99.90;;;;;;5026568;28;20095;-74
2022/04/21 02:03:04;;;;;;;12.45;9.02;;;9.30;99.90;;;;;;5010686;28;20045;-74
2022/04/21 02:05:30;;;;;;;14.57;9.23;;;9.30;99.90;;;;;;5029734;28;20045;-75
2022/04/21 02:07:55;;;;;;;11.65;9.68;;;9.20;99.90;;;;;;5030395;28;20040;-75
2022/04/21 02:10:21;;;;;;;13.38;9.15;;;9.20;99.90;;;;;;5026974;28;20048;-74
2022/04/21 02:12:47;;;;;;;11.57;8.50;;;9.20;99.90;;;;;;5028910;28;20049;-74
2022/04/21 02:15:13;;;;;;;12.00;8.85;;;9.20;99.90;;;;;;5028831;28;20455;-74
2022/04/21 02:17:39;;;;;;;10.25;8.90;;;9.20;99.90;;;;;;5030446;28;20041;-74
2022/04/21 02:20:08;;;;;;;11.43;9.18;;;9.20;99.90;;;;;;5028544;28;20039;-74
2022/04/21 02:22:36;;;;;;;11.85;9.50;;;9.10;99.90;;;;;;5025940;28;20040;-74
2022/04/21 02:25:04;;;;;;;12.85;9.88;;;9.10;99.90;;;;;;5027466;28;20033;-74
2022/04/21 02:27:30;;;;;;;13.02;10.00;;;9.10;99.90;;;;;;5011288;28;20049;-75
2022/04/21 02:29:55;;;;;;;11.98;9.57;;;9.10;99.90;;;;;;5028138;28;20107;-75
2022/04/21 02:32:21;;;;;;;11.98;9.80;;;9.00;99.90;;;;;;5030754;28;20037;-74
2022/04/21 02:34:47;;;;;;;12.98;9.52;;;9.00;99.90;;;;;;5011854;28;20080;-74
2022/04/21 02:37:13;;;;;;;15.35;9.88;;;9.00;99.90;;;;;;5027813;28;20085;-73
2022/04/21 02:39:38;;;;;;;13.93;9.93;;;8.90;99.90;;;;;;5011546;28;20056;-74
2022/04/21 02:42:04;;;;;;;11.48;10.10;;;8.90;99.90;;;;;;5011021;28;20045;-74
2022/04/21 02:44:31;;;;;;;14.77;10.07;;;8.90;99.90;;;;;;5009005;28;20046;-74
2022/04/21 02:46:58;;;;;;;13.57;9.93;;;8.90;99.90;;;;;;5009250;28;20052;-74
2022/04/21 02:49:25;;;;;;;13.20;10.10;;;8.80;99.90;;;;;;5029349;28;20061;-74
2022/04/21 02:51:52;;;;;;;12.07;9.70;;;8.80;99.90;;;;;;5030560;28;20045;-74
2022/04/21 02:57:20;;;;;;;12.88;10.45;;;8.80;99.90;;;;;;5025900;28;20046;-75
2022/04/21 02:59:47;;;;;;;11.95;10.57;;;8.70;99.90;;;;;;5010720;28;20049;-74
2022/04/21 03:02:13;;;;;;;12.88;10.75;;;8.70;99.90;;;;;;5018148;28;20049;-74
2022/04/21 03:04:38;;;;;;;11.88;10.52;;;8.70;99.90;;;;;;5027271;28;20041;-74
2022/04/21 03:07:04;;;;;;;13.35;10.10;;;8.70;99.90;;;;;;5027334;28;20116;-74
2022/04/21 03:09:30;;;;;;;12.52;10.68;;;8.70;99.90;;;;;;5010499;28;20045;-74
2022/04/21 03:12:06;;;;;;;12.98;10.52;;;8.70;99.90;;;;;;5025523;28;20102;-74
2022/04/21 03:14:35;;;;;;;12.77;10.68;;;8.70;99.90;;;;;;5010657;28;20049;-74
2022/04/21 03:17:00;;;;;;;14.43;10.38;;;8.60;99.90;;;;;;5031373;28;20454;-74
2022/04/21 03:19:26;;;;;;;13.38;11.00;;;8.60;99.90;;;;;;5025842;28;20069;-74
2022/04/21 03:24:37;;;;;;;12.55;10.60;;;8.60;99.90;;;;;;5027902;28;20050;-74
2022/04/21 03:27:04;;;;;;;13.70;10.83;;;8.60;99.90;;;;;;5032100;28;20045;-73
2022/04/21 03:29:29;;;;;;;14.05;10.80;;;8.50;99.90;;;;;;5009168;28;20132;-74
2022/04/21 03:31:55;;;;;;;13.35;10.38;;;8.50;99.90;;;;;;5011237;28;20140;-74
2022/04/21 03:34:21;;;;;;;13.55;10.95;;;8.50;99.90;;;;;;5026841;28;20033;-74
2022/04/21 03:36:49;;;;;;;13.27;10.70;;;8.50;99.90;;;;;;5001472;28;20059;-74
2022/04/21 03:39:16;;;;;;;14.57;11.32;;;8.50;99.90;;;;;;5008630;28;20547;-74
2022/04/21 03:41:42;;;;;;;13.52;11.13;;;8.60;99.90;;;;;;5028884;28;20484;-74
2022/04/21 03:44:09;;;;;;;13.30;10.80;;;8.50;99.90;;;;;;5027905;28;20038;-74
2022/04/21 03:46:35;;;;;;;13.38;10.65;;;8.50;99.90;;;;;;5011665;28;20569;-74
2022/04/21 03:49:00;;;;;;;13.35;10.48;;;8.50;99.90;;;;;;5029242;28;20042;-74
2022/04/21 03:51:27;;;;;;;13.23;11.30;;;8.40;99.90;;;;;;5010474;28;20033;-74
2022/04/21 03:53:54;;;;;;;13.40;10.75;;;8.40;99.90;;;;;;4999566;28;20049;-74
2022/04/21 03:56:20;;;;;;;16.85;11.68;;;8.30;99.90;;;;;;5004199;28;20045;-74
2022/04/21 03:58:45;;;;;;;12.88;11.23;;;8.30;99.90;;;;;;5006210;28;20053;-74
2022/04/21 04:01:11;;;;;;;13.68;11.35;;;8.30;99.90;;;;;;5026494;28;20048;-74
2022/04/21 04:03:37;;;;;;;15.23;11.70;;;8.20;99.90;;;;;;5009359;28;20056;-73
2022/04/21 04:06:03;;;;;;;14.05;11.63;;;8.20;99.90;;;;;;5028181;28;20100;-74
2022/04/21 04:11:12;;;;;;;13.88;11.65;;;8.20;99.90;;;;;;5029954;28;20054;-74
2022/04/21 04:13:38;;;;;;;13.23;11.45;;;8.10;99.90;;;;;;5031023;28;20137;-74
2022/04/21 04:16:04;;;;;;;12.30;10.90;;;8.10;99.90;;;;;;5014621;28;20044;-74
2022/04/21 04:18:29;;;;;;;13.82;11.82;;;8.10;99.90;;;;;;5010936;28;20060;-74
2022/04/21 04:20:55;;;;;;;13.10;11.20;;;8.10;99.90;;;;;;5012863;28;20041;-74
2022/04/21 04:23:21;;;;;;;13.13;11.73;;;8.10;99.90;;;;;;5013812;28;20045;-74
2022/04/21 04:25:48;;;;;;;14.77;11.73;;;8.10;99.90;;;;;;5030741;28;20040;-74
2022/04/21 04:28:14;;;;;;;14.07;11.30;;;8.10;99.90;;;;;;5030494;28;20163;-73
2022/04/21 04:30:40;;;;;;;14.57;11.65;;;8.10;99.90;;;;;;5013985;28;20041;-74
2022/04/21 04:33:07;;;;;;;14.02;11.52;;;8.10;99.90;;;;;;5017824;28;20106;-73
2022/04/21 04:35:32;;;;;;;14.73;12.25;;;8.00;99.90;;;;;;5030669;28;20128;-73
2022/04/21 04:37:59;;;;;;;19.98;12.25;;;8.00;99.90;;;;;;5011972;28;20199;-74
2022/04/21 04:40:25;;;;;;;16.50;12.50;;;8.00;99.90;;;;;;5013427;28;20581;-73
2022/04/21 04:42:55;;;;;;;14.93;11.95;;;8.00;99.90;;;;;;5034063;28;20049;-73
2022/04/21 04:48:05;;;;;;;15.63;11.85;;;7.90;99.90;;;;;;5022031;28;20045;-73
2022/04/21 04:50:31;;;;;;;14.07;11.70;;;8.00;99.90;;;;;;5030417;28;20114;-73
2022/04/21 04:52:58;;;;;;;15.18;11.85;;;8.00;99.90;;;;;;5031404;28;20132;-74
2022/04/21 04:55:25;;;;;;;14.38;11.95;;;8.00;99.90;;;;;;5031243;28;20049;-73
2022/04/21 04:57:51;;;;;;;14.70;12.23;;;8.00;99.90;;;;;;5028919;28;20513;-74
2022/04/21 05:00:17;;;;;;;16.52;11.95;;;8.00;99.90;;;;;;5012338;28;20054;-74
2022/04/21 05:02:44;;;;;;;14.65;11.85;;;8.00;99.90;;;;;;5034903;28;20049;-74
2022/04/21 05:05:11;;;;;;;13.67;12.10;;;8.10;99.90;;;;;;5012862;28;20053;-74
2022/04/21 05:07:39;;;;;;;13.05;11.25;;;8.10;99.90;;;;;;5012506;28;20497;-74
2022/04/21 05:10:05;;;;;;;;;;;8.10;99.90;;;;;;5012189;28;20056;-74
2022/04/21 05:12:31;;;;;;;14.27;11.73;;;8.10;99.90;;;;;;5012777;28;19929;-73
2022/04/21 05:14:56;;;;;;;14.38;11.40;;;8.00;99.90;;;;;;5013077;28;20061;-73
2022/04/21 05:17:22;;;;;;;14.68;11.70;;;8.10;99.90;;;;;;5015231;28;20042;-74
2022/04/21 05:19:48;;;;;;;13.75;11.70;;;8.20;99.90;;;;;;5031126;28;20128;-74
2022/04/21 05:22:16;;;;;;;13.48;12.07;;;8.20;99.90;;;;;;5029926;28;20046;-74
2022/04/21 05:24:46;;;;;;;14.20;11.45;;;8.20;99.90;;;;;;5010320;28;20579;-74
2022/04/21 05:27:12;;;;;;;14.93;11.55;;;8.30;99.90;;;;;;5033844;28;20112;-73
2022/04/21 05:32:26;;;;;;;14.10;11.27;;;8.20;99.90;;;;;;5030280;28;20045;-74
2022/04/21 05:34:52;;;;;;;14.93;11.23;;;8.30;99.90;;;;;;5014513;28;20049;-74
2022/04/21 05:37:18;;;;;;;13.40;11.00;;;8.30;99.90;;;;;;5012834;28;20068;-77
2022/04/21 05:39:43;;;;;;;15.82;11.32;;;8.30;99.90;;;;;;5033763;28;20033;-73
2022/04/21 05:42:17;;;;;;;12.98;10.65;;;8.40;99.90;;;;;;5021280;28;20053;-73
2022/04/21 05:44:43;;;;;;;15.52;11.05;;;8.40;99.90;;;;;;5012903;28;20084;-73
2022/04/21 05:47:09;;;;;;;11.65;10.45;;;8.40;99.90;;;;;;5011660;28;20489;-72
2022/04/21 05:49:35;;;;;;;12.77;10.73;;;8.50;99.90;;;;;;5029077;28;20068;-73
2022/04/21 05:52:02;;;;;;;12.43;10.98;;;8.50;99.90;;;;;;5010325;28;20053;-73
2022/04/21 05:54:27;;;;;;;12.43;10.75;;;8.50;99.90;;;;;;5028222;28;20069;-73
2022/04/21 05:56:53;;;;;;;11.77;9.57;;;8.60;99.90;;;;;;5028892;28;20049;-73
2022/04/21 05:59:19;;;;;;;16.23;10.63;;;8.60;99.90;;;;;;5026767;28;20535;-73
2022/04/21 06:01:44;;;;;;;11.50;9.45;;;8.70;99.90;;;;;;5010904;28;20045;-73
2022/04/21 06:04:10;;;;;;;11.82;8.75;;;8.80;99.90;;;;;;5010419;28;20053;-74
2022/04/21 06:06:36;;;;;;;11.35;8.82;;;8.80;99.90;;;;;;5011279;28;20376;-74
2022/04/21 06:09:02;;;;;;;10.85;8.27;;;8.90;99.90;;;;;;5029120;28;20057;-73
2022/04/21 06:11:27;;;;;;;12.07;9.32;;;9.00;99.90;;;;;;5026951;28;20495;-73
2022/04/21 06:13:53;;;;;;;8.93;8.02;;;9.00;99.90;;;;;;5010376;28;20041;-73
2022/04/21 06:16:19;;;;;;;13.10;8.55;;;9.10;99.90;;;;;;5010740;28;20038;-74
2022/04/21 06:18:44;;;;;;;10.30;7.78;;;9.20;99.90;;;;;;5030813;28;20465;-74
2022/04/21 06:21:10;;;;;;;10.00;8.30;;;9.20;99.90;;;;;;5023470;28;20087;-73
2022/04/21 06:23:36;;;;;;;9.98;8.10;;;9.30;99.90;;;;;;5012533;28;20068;-73
2022/04/21 06:26:03;;;;;;;10.80;7.75;;;9.40;99.90;;;;;;5025647;28;20044;-74
2022/04/21 06:28:29;;;;;;;;;;;9.40;99.90;;;;;;5006255;28;20060;-74
2022/04/21 06:30:55;;;;;;;10.43;7.15;;;9.50;99.90;;;;;;5028359;28;20376;-74
2022/04/21 06:33:21;;;;;;;8.10;7.20;;;9.50;99.90;;;;;;5029790;28;20044;-73
2022/04/21 06:35:47;;;;;;;10.02;7.22;;;9.60;99.90;;;;;;5027755;28;20099;-74
2022/04/21 06:38:13;;;;;;;9.82;6.60;;;9.70;99.90;;;;;;5026526;28;20056;-73
2022/04/21 06:40:38;;;;;;;8.13;6.65;;;9.80;99.90;;;;;;5006516;28;20076;-73
2022/04/21 06:48:01;;;;;;;9.07;5.90;;;9.80;99.90;;;;;;5025886;28;20064;-74
2022/04/21 06:48:36;;;;;;;10.73;6.93;;;9.90;99.90;;;;;;5028467;28;20057;-73
2022/04/21 06:51:02;;;;;;;9.18;6.70;;;10.00;99.90;;;;;;5022395;28;20061;-74
2022/04/21 06:53:30;;;;;;;16.17;8.13;;;10.10;99.90;;;;;;5023026;28;20039;-74
2022/04/21 06:55:56;;;;;;;10.15;6.47;;;10.10;99.90;;;;;;5009393;28;20081;-74
2022/04/21 06:58:22;;;;;;;9.63;6.53;;;10.20;99.90;;;;;;5027248;28;20141;-74
2022/04/21 07:00:48;;;;;;;9.38;6.50;;;10.30;99.90;;;;;;5027907;28;20045;-73
2022/04/21 07:03:13;;;;;;;7.15;6.00;;;10.30;99.90;;;;;;5007374;28;20060;-73
2022/04/21 07:05:39;;;;;;;9.48;5.90;;;10.50;99.90;;;;;;5028323;28;20033;-74
2022/04/21 07:08:06;;;;;;;7.63;5.85;;;10.50;99.90;;;;;;5027872;28;20128;-77
2022/04/21 07:10:32;;;;;;;7.07;5.18;;;10.50;99.90;;;;;;5014068;28;20048;-76
2022/04/21 07:12:58;;;;;;;7.65;5.70;;;10.60;99.90;;;;;;5026014;28;20049;-76
2022/04/21 07:15:24;;;;;;;8.25;5.65;;;10.70;99.90;;;;;;5010984;28;20049;-76
2022/04/21 07:17:50;;;;;;;9.57;5.60;;;10.70;99.80;;;;;;5012918;28;20073;-75
2022/04/21 07:20:15;;;;;;;8.85;5.90;;;10.80;99.90;;;;;;5010999;28;20069;-74
2022/04/21 07:22:41;;;;;;;6.45;5.45;;;10.90;98.80;;;;;;5032733;28;20049;-74
2022/04/21 07:25:09;;;;;;;8.32;5.38;;;10.90;98.20;;;;;;5016800;28;20103;-75
2022/04/21 07:27:36;;;;;;;7.65;5.20;;;11.00;98.20;;;;;;5011642;28;20042;-74
2022/04/21 07:30:03;;;;;;;7.47;5.20;;;11.00;98.40;;;;;;5043877;28;20048;-74
2022/04/21 07:32:31;;;;;;;9.33;4.97;;;11.10;97.40;;;;;;5015564;28;20092;-73
2022/04/21 07:34:57;;;;;;;7.50;4.93;;;11.20;97.90;;;;;;5010031;28;20823;-74
2022/04/21 07:37:22;;;;;;;6.55;4.82;;;11.30;95.30;;;;;;5010516;28;20041;-74
2022/04/21 07:39:48;;;;;;;7.70;5.10;;;11.40;94.20;;;;;;5010541;28;20049;-74
2022/04/21 07:42:14;;;;;;;7.35;4.75;;;11.40;95.00;;;;;;5028778;28;20045;-72
2022/04/21 07:44:40;;;;;;;7.60;4.88;;;11.40;94.10;;;;;;5011446;28;20483;-75
2022/04/21 07:47:06;;;;;;;9.40;5.07;;;11.60;93.00;;;;;;5029780;28;20099;-74
2022/04/21 07:49:45;;;;;;;7.77;4.70;;;11.70;92.20;;;;;;5014480;28;20521;-75
2022/04/21 07:55:14;;;;;;;6.55;4.70;;;11.80;91.40;;;;;;5039793;28;20069;-73
2022/04/21 07:57:41;;;;;;;6.82;4.40;;;11.80;92.10;;;;;;5022339;28;20558;-76
2022/04/21 08:00:07;;;;;;;5.28;4.07;;;11.90;89.00;;;;;;5010329;28;20041;-76
2022/04/21 08:02:33;;;;;;;5.60;3.75;;;11.90;86.60;;;;;;5016987;28;20045;-76
2022/04/21 08:04:59;;;;;;;5.85;3.95;;;12.00;87.30;;;;;;5047932;28;20051;-73
2022/04/21 08:07:25;;;;;;;9.10;4.05;;;12.10;89.70;;;;;;5031201;28;20040;-73
2022/04/21 08:09:51;;;;;;;5.25;3.83;;;12.20;90.70;;;;;;5028312;28;20704;-73
2022/04/21 08:12:16;;;;;;;5.85;3.83;;;12.30;80.70;;;;;;5052078;28;20041;-72
2022/04/21 08:14:42;;;;;;;6.30;4.05;;;12.30;77.50;;;;;;5023875;28;20137;-71
2022/04/21 08:17:08;;;;;;;6.50;3.58;;;12.40;77.70;;;;;;5033399;28;20058;-76
2022/04/21 08:19:34;;;;;;;9.50;4.05;;;12.40;75.30;;;;;;5032606;28;20072;-73
2022/04/21 08:21:59;;;;;;;6.72;3.63;;;12.50;74.60;;;;;;5030453;28;20666;-76
2022/04/21 08:32:43;;;;;;;7.07;3.65;;;12.80;73.20;;;;;;5045582;28;20049;-75
2022/04/21 08:35:09;;;;;;;4.22;3.20;;;13.00;70.20;;;;;;5014604;28;20480;-75
2022/04/21 08:37:36;;;;;;;4.80;3.30;;;13.10;68.20;;;;;;5046902;28;20094;-75
2022/04/21 08:40:06;;;;;;;6.53;3.30;;;13.10;68.30;;;;;;5050111;28;20048;-76
2022/04/21 08:42:37;;;;;;;17.50;3.42;;;13.20;65.40;;;;;;5048521;28;20037;-75
2022/04/21 08:45:04;;;;;;;4.88;3.28;;;13.20;65.70;;;;;;5051512;28;20045;-76
2022/04/21 08:47:31;;;;;;;8.30;3.83;;;13.30;66.20;;;;;;5016280;28;20045;-76
2022/04/21 08:50:06;;;;;;;8.02;3.65;;;13.30;66.00;;;;;;5042441;28;20061;-76
2022/04/21 08:52:35;;;;;;;6.05;3.60;;;13.40;66.20;;;;;;5009861;28;20545;-75
2022/04/21 08:55:04;;;;;;;6.97;3.30;;;13.40;66.00;;;;;;5013908;28;20037;-75
2022/04/21 08:57:30;;;;;;;6.75;3.60;;;13.40;64.90;;;;;;5030288;28;20041;-74
2022/04/21 08:59:57;;;;;;;5.32;3.60;;;13.40;64.30;;;;;;5013866;28;20041;-73
2022/04/21 09:02:38;;;;;;;7.37;3.93;;;13.50;66.60;;;;;;5044507;28;20044;-75
2022/04/21 09:05:04;;;;;;;6.55;3.70;;;13.60;70.20;;;;;;5033293;28;20057;-74
2022/04/21 09:07:30;;;;;;;5.88;3.58;;;13.70;68.10;;;;;;5050994;28;20043;-75
2022/04/21 09:10:06;;;;;;;6.30;3.95;;;13.80;67.40;;;;;;5050855;28;20112;-74
2022/04/21 09:12:39;;;;;;;7.40;3.95;;;13.80;67.70;;;;;;5026381;28;20385;-74
2022/04/21 09:15:10;;;;;;;6.75;3.92;;;13.90;67.00;;;;;;5030991;28;20049;-74
2022/04/21 09:17:45;;;;;;;9.57;3.70;;;14.00;67.30;;;;;;5010974;28;20132;-75
2022/04/21 09:20:12;;;;;;;8.45;3.85;;;14.10;66.40;;;;;;5027128;28;20042;-74
2022/04/21 09:22:42;;;;;;;8.13;4.05;;;14.20;65.60;;;;;;5030342;28;20063;-74
2022/04/21 09:25:09;;;;;;;5.65;3.83;;;14.20;66.30;;;;;;5024987;28;20037;-76
2022/04/21 09:27:54;;;;;;;6.85;3.60;;;14.30;65.40;;;;;;5029473;28;20041;-74
2022/04/21 09:30:20;;;;;;;5.95;3.80;;;14.40;66.30;;;;;;5036584;28;20121;-76
2022/04/21 09:32:53;;;;;;;6.18;3.40;;;14.50;64.90;;;;;;5012086;28;20132;-76
2022/04/21 09:35:20;;;;;;;7.45;3.50;;;14.60;63.00;;;;;;5026732;28;20072;-75
2022/04/21 09:37:46;;;;;;;6.32;3.85;;;14.50;62.20;;;;;;5010480;28;20041;-75
2022/04/21 09:40:12;;;;;;;5.10;3.67;;;14.60;62.60;;;;;;5009752;28;20072;-75
2022/04/21 09:42:38;;;;;;;9.40;5.00;;;14.70;62.10;;;;;;5012656;28;20455;-74
2022/04/21 09:47:49;;;;;;;5.22;4.50;;;14.70;60.90;;;;;;5030293;28;20085;-76
2022/04/21 09:50:15;;;;;;;6.85;4.10;;;14.70;62.00;;;;;;5010182;28;20085;-75
2022/04/21 09:52:52;;;;;;;8.07;3.85;;;14.70;61.80;;;;;;5011390;28;20413;-75
2022/04/21 09:55:26;;;;;;;6.82;4.40;;;14.70;59.90;;;;;;5027691;28;20049;-75
2022/04/21 09:58:05;;;;;;;7.20;3.92;;;14.70;60.10;;;;;;5029405;28;20130;-74
2022/04/21 10:00:32;;;;;;;8.45;4.22;;;14.70;60.50;;;;;;5010052;28;20120;-75
2022/04/21 10:03:04;;;;;;;7.72;4.60;;;14.70;62.40;;;;;;5027981;28;20041;-74
2022/04/21 10:05:31;;;;;;;7.38;4.40;;;14.80;61.00;;;;;;5028385;28;20076;-74
2022/04/21 10:08:00;;;;;;;5.70;4.07;;;14.70;61.50;;;;;;5022022;28;20044;-75
2022/04/21 10:10:31;;;;;;;8.55;4.72;;;14.80;60.90;;;;;;5034301;28;20041;-75
2022/04/21 10:12:59;;;;;;;7.45;4.97;;;14.80;61.70;;;;;;5028690;28;20049;-74
2022/04/21 10:15:26;;;;;;;5.93;4.18;;;14.80;60.60;;;;;;5031081;28;20760;-78
2022/04/21 10:17:52;;;;;;;8.85;4.32;;;14.70;60.30;;;;;;5011737;28;20049;-78
2022/04/21 10:20:24;;;;;;;6.10;4.65;;;14.70;60.90;;;;;;5027341;28;20052;-74
2022/04/21 10:22:52;;;;;;;6.00;4.22;;;14.80;60.70;;;;;;5028818;28;20049;-77
2022/04/21 10:25:19;;;;;;;8.50;4.93;;;14.90;60.80;;;;;;5011472;28;20146;-76
2022/04/21 10:27:49;;;;;;;6.55;4.88;;;15.10;60.50;;;;;;5010628;28;20049;-74
2022/04/21 10:30:22;;;;;;;8.68;4.63;;;15.20;60.40;;;;;;5011027;28;20592;-78
2022/04/21 10:32:53;;;;;;;7.82;4.55;;;15.30;59.10;;;;;;4997389;28;20106;-76
2022/04/21 10:35:27;;;;;;;9.20;4.90;;;15.40;60.10;;;;;;5026683;28;20096;-75
2022/04/21 10:38:14;;;;;;;8.38;4.43;;;15.50;59.60;;;;;;5023419;28;20041;-77
2022/04/21 10:41:03;;;;;;;7.05;5.07;;;15.60;59.10;;;;;;5028515;28;20400;-75
2022/04/21 10:43:48;;;;;;;8.25;4.70;;;15.70;60.00;;;;;;5010537;28;20049;-76
2022/04/21 10:46:32;;;;;;;6.47;4.78;;;15.80;59.00;;;;;;5032886;28;20059;-78
2022/04/21 10:48:59;;;;;;;9.05;4.40;;;15.80;58.40;;;;;;5029997;28;20163;-77
2022/04/21 10:57:16;;;;;;;5.88;3.83;;;15.90;55.80;;;;;;5011608;28;20072;-76
2022/04/21 11:00:05;;;;;;;8.75;4.20;;;15.90;55.70;;;;;;5030258;28;20045;-76
2022/04/21 11:02:41;;;;;;;7.63;4.47;;;15.90;54.70;;;;;;5010554;28;20405;-75
2022/04/21 11:05:22;;;;;;;6.20;3.95;;;15.90;55.00;;;;;;5019761;28;20052;-75
2022/04/21 11:07:53;;;;;;;6.90;4.22;;;16.00;55.70;;;;;;5018759;28;20118;-75
2022/04/21 11:10:45;;;;;;;5.28;4.22;;;16.00;54.90;;;;;;5025038;28;20085;-75
2022/04/21 11:13:18;;;;;;;4.90;4.10;;;16.10;54.00;;;;;;5032533;28;20052;-75
2022/04/21 11:15:53;;;;;;;7.47;4.00;;;16.10;54.00;;;;;;5028678;28;20100;-75
2022/04/21 11:18:20;;;;;;;4.85;3.70;;;16.00;53.10;;;;;;5026693;28;20457;-75
2022/04/21 11:20:50;;;;;;;;;;;16.00;53.30;;;;;;5010307;28;20049;-75
2022/04/21 11:23:24;;;;;;;8.80;5.15;;;15.80;53.80;;;;;;5027359;28;19921;-75
2022/04/21 11:25:51;;;;;;;8.10;4.72;;;15.70;54.40;;;;;;5035803;28;20048;-75
2022/04/21 11:28:24;;;;;;;9.57;5.20;;;15.70;55.50;;;;;;5048090;28;20510;-75
2022/04/21 11:30:57;;;;;;;7.88;5.68;;;15.80;55.50;;;;;;5040222;28;20053;-75
2022/04/21 11:33:22;;;;;;;7.05;4.63;;;15.70;55.00;;;;;;5008823;28;20038;-75
2022/04/21 11:35:48;;;;;;;7.28;4.78;;;15.80;55.70;;;;;;5026561;28;20042;-75
2022/04/21 11:38:14;;;;;;;5.82;5.05;;;15.80;55.60;;;;;;5025581;28;20052;-75
2022/04/21 11:40:40;;;;;;;6.50;4.72;;;15.90;55.80;;;;;;5010704;28;20041;-74
2022/04/21 11:43:17;;;;;;;8.63;4.95;;;15.90;55.90;;;;;;5047041;28;20029;-75
2022/04/21 11:46:09;;;;;;;8.93;5.00;;;15.80;55.90;;;;;;5027566;28;20049;-75
2022/04/21 11:48:42;;;;;;;6.97;4.78;;;15.90;56.50;;;;;;5008705;28;20463;-75
2022/04/21 11:51:09;;;;;;;6.90;4.68;;;15.90;55.80;;;;;;5012000;28;20045;-75
2022/04/21 11:53:40;;;;;;;;;;;15.90;55.70;;;;;;5038358;28;20107;-76
2022/04/21 11:56:08;;;;;;;7.00;5.00;;;16.00;55.60;;;;;;5026364;28;19923;-75
2022/04/21 11:58:38;;;;;;;8.50;5.43;;;16.10;56.10;;;;;;5009428;28;20051;-75
2022/04/21 12:06:50;;;;;;;8.32;4.28;;;16.30;54.60;;;;;;5024793;28;19932;-74
2022/04/21 12:09:18;;;;;;;6.97;4.43;;;16.40;54.90;;;;;;5019250;28;20500;-74
2022/04/21 12:11:48;;;;;;;5.85;3.97;;;16.60;54.00;;;;;;5026668;28;20056;-78
2022/04/21 12:14:15;;;;;;;6.10;4.07;;;16.70;53.60;;;;;;5009415;28;20493;-75
2022/04/21 12:16:42;;;;;;;6.05;4.00;;;16.70;53.60;;;;;;5010293;28;20152;-75
2022/04/21 12:19:33;;;;;;;9.25;4.30;;;16.70;53.40;;;;;;5026617;28;20098;-75
2022/04/21 12:22:02;;;;;;;8.80;4.18;;;16.70;53.30;;;;;;5025649;28;20045;-75
2022/04/21 12:24:36;;;;;;;8.20;3.90;;;16.70;52.80;;;;;;5027631;28;20046;-75
2022/04/21 12:27:20;;;;;;;5.97;4.00;;;16.80;54.00;;;;;;5008953;28;20452;-74
2022/04/21 12:29:57;;;;;;;7.22;4.07;;;17.00;52.90;;;;;;5028106;28;20060;-74
2022/04/21 12:32:27;;;;;;;6.63;4.03;;;17.10;53.50;;;;;;5028269;28;20048;-74
2022/04/21 12:34:55;;;;;;;8.27;3.90;;;17.20;52.90;;;;;;5013326;28;20176;-74
2022/04/21 12:37:25;;;;;;;8.90;4.20;;;17.30;52.00;;;;;;5030737;28;20048;-74
2022/04/21 12:39:53;;;;;;;6.53;4.18;;;17.40;50.80;;;;;;5011935;28;20077;-74
2022/04/21 12:42:19;;;;;;;6.55;4.00;;;17.30;50.60;;;;;;5043407;28;20079;-74
2022/04/21 12:44:46;;;;;;;8.38;4.65;;;17.40;50.90;;;;;;5051119;28;20158;-73
2022/04/21 12:47:22;;;;;;;6.43;4.25;;;17.40;50.90;;;;;;5017309;28;20048;-73
2022/04/21 12:49:58;;;;;;;5.72;4.10;;;17.50;50.70;;;;;;5011021;28;20073;-73
2022/04/21 12:52:32;;;;;;;5.72;4.05;;;17.50;51.00;;;;;;5007105;28;20068;-73
2022/04/21 12:54:59;;;;;;;7.20;4.13;;;17.50;50.70;;;;;;5029473;28;20490;-74
2022/04/21 12:57:25;;;;;;;5.38;4.00;;;17.60;50.60;;;;;;5011860;28;20148;-75
2022/04/21 12:59:51;;;;;;;5.97;4.50;;;17.60;51.00;;;;;;5030092;28;20392;-75
2022/04/21 13:02:19;;;;;;;8.20;4.60;;;17.70;52.00;;;;;;5034239;28;20124;-75
2022/04/21 13:04:46;;;;;;;5.85;4.25;;;17.80;51.50;;;;;;5031301;28;20277;-75
2022/04/21 13:07:12;;;;;;;8.80;4.50;;;17.90;51.10;;;;;;5029617;28;20034;-74
2022/04/21 13:09:38;;;;;;;6.80;4.55;;;17.90;51.00;;;;;;5027590;28;20122;-75
2022/04/21 13:12:06;;;;;;;8.63;4.40;;;18.00;50.90;;;;;;5021525;28;20074;-73
2022/04/21 13:14:32;;;;;;;7.43;4.20;;;18.10;50.60;;;;;;5037077;28;20499;-73
2022/04/21 13:16:58;;;;;;;8.25;4.43;;;18.10;50.80;;;;;;5017777;28;20045;-72
2022/04/21 13:19:24;;;;;;;10.38;4.93;;;18.10;50.80;;;;;;5047273;28;20051;-74
2022/04/21 13:21:52;;;;;;;7.57;4.75;;;18.00;50.50;;;;;;5025728;28;20124;-72
2022/04/21 13:24:22;;;;;;;6.13;4.53;;;18.00;50.80;;;;;;5039324;28;20045;-72
2022/04/21 13:26:48;;;;;;;11.95;6.15;;;18.00;51.00;;;;;;5024414;28;20420;-72
2022/04/21 13:29:14;;;;;;;6.28;4.70;;;18.10;51.00;;;;;;5046746;28;20053;-73
2022/04/21 13:34:23;;;;;;;9.38;5.38;;;18.20;51.00;;;;;;5034061;28;20053;-72
2022/04/21 13:36:49;;;;;;;6.03;4.50;;;18.20;51.00;;;;;;5049757;28;20053;-72
2022/04/21 13:39:15;;;;;;;6.15;4.40;;;18.10;51.10;;;;;;5010624;28;20041;-74
2022/04/21 13:41:41;;;;;;;7.15;4.72;;;18.10;50.30;;;;;;5041920;28;20225;-73